sensor_id;sensor_type;location;lat;lon;timestamp;temperature;humidity
81842;DHT22;71284;50.918;7.092;2023-07-29T00:00:59;22.20;67.80
81842;DHT22;71284;50.918;7.092;2023-07-29T00:03:26;22.30;67.60
81842;DHT22;71284;50.918;7.092;2023-07-29T00:05:52;22.30;67.30
81842;DHT22;71284;50.918;7.092;2023-07-29T00:08:19;22.40;67.20
81842;DHT22;71284;50.918;7.092;2023-07-29T00:10:45;22.20;67.60
81842;DHT22;71284;50.918;7.092;2023-07-29T00:13:12;22.20;67.70
81842;DHT22;71284;50.918;7.092;2023-07-29T00:15:39;22.30;67.70
81842;DHT22;71284;50.918;7.092;2023-07-29T00:18:05;22.40;67.40
81842;DHT22;71284;50.918;7.092;2023-07-29T00:20:32;22.40;67.50
81842;DHT22;71284;50.918;7.092;2023-07-29T00:22:58;22.30;67.80
81842;DHT22;71284;50.918;7.092;2023-07-29T00:25:25;22.30;67.50
81842;DHT22;71284;50.918;7.092;2023-07-29T00:27:51;22.30;67.70
81842;DHT22;71284;50.918;7.092;2023-07-29T00:30:18;22.30;67.60
81842;DHT22;71284;50.918;7.092;2023-07-29T00:32:45;22.30;67.70
81842;DHT22;71284;50.918;7.092;2023-07-29T00:35:12;22.30;67.70
81842;DHT22;71284;50.918;7.092;2023-07-29T00:37:38;22.30;67.80
81842;DHT22;71284;50.918;7.092;2023-07-29T00:40:21;22.30;67.80
81842;DHT22;71284;50.918;7.092;2023-07-29T00:42:48;22.30;68.20
81842;DHT22;71284;50.918;7.092;2023-07-29T00:45:14;21.90;69.40
81842;DHT22;71284;50.918;7.092;2023-07-29T00:47:41;22.00;69.40
81842;DHT22;71284;50.918;7.092;2023-07-29T00:50:08;22.00;69.00
81842;DHT22;71284;50.918;7.092;2023-07-29T00:52:34;22.10;68.70
81842;DHT22;71284;50.918;7.092;2023-07-29T00:55:01;22.10;68.50
81842;DHT22;71284;50.918;7.092;2023-07-29T00:57:29;22.20;68.50
81842;DHT22;71284;50.918;7.092;2023-07-29T00:59:54;22.20;68.60
81842;DHT22;71284;50.918;7.092;2023-07-29T01:02:21;22.10;68.80
81842;DHT22;71284;50.918;7.092;2023-07-29T01:04:52;22.10;69.00
81842;DHT22;71284;50.918;7.092;2023-07-29T01:07:21;22.10;68.90
81842;DHT22;71284;50.918;7.092;2023-07-29T01:12:22;22.00;69.20
81842;DHT22;71284;50.918;7.092;2023-07-29T01:14:55;22.00;69.70
81842;DHT22;71284;50.918;7.092;2023-07-29T01:17:23;22.00;69.40
81842;DHT22;71284;50.918;7.092;2023-07-29T01:19:59;22.10;69.20
81842;DHT22;71284;50.918;7.092;2023-07-29T01:22:22;22.10;68.90
81842;DHT22;71284;50.918;7.092;2023-07-29T01:24:49;22.10;68.80
81842;DHT22;71284;50.918;7.092;2023-07-29T01:27:15;22.20;68.60
81842;DHT22;71284;50.918;7.092;2023-07-29T01:29:42;22.20;68.50
81842;DHT22;71284;50.918;7.092;2023-07-29T01:32:11;22.30;68.40
81842;DHT22;71284;50.918;7.092;2023-07-29T01:34:44;22.30;68.20
81842;DHT22;71284;50.918;7.092;2023-07-29T01:37:09;22.30;68.30
81842;DHT22;71284;50.918;7.092;2023-07-29T01:39:35;22.30;68.40
81842;DHT22;71284;50.918;7.092;2023-07-29T01:42:01;22.10;69.10
81842;DHT22;71284;50.918;7.092;2023-07-29T01:44:28;22.00;69.50
81842;DHT22;71284;50.918;7.092;2023-07-29T01:46:55;22.00;69.60
81842;DHT22;71284;50.918;7.092;2023-07-29T01:49:21;22.10;69.40
81842;DHT22;71284;50.918;7.092;2023-07-29T01:51:48;22.10;69.10
81842;DHT22;71284;50.918;7.092;2023-07-29T01:54:14;22.10;69.00
81842;DHT22;71284;50.918;7.092;2023-07-29T01:56:41;22.00;69.40
81842;DHT22;71284;50.918;7.092;2023-07-29T01:59:07;21.90;69.60
81842;DHT22;71284;50.918;7.092;2023-07-29T02:01:34;22.10;69.30
81842;DHT22;71284;50.918;7.092;2023-07-29T02:04:01;22.10;69.10
81842;DHT22;71284;50.918;7.092;2023-07-29T02:06:27;22.20;68.70
81842;DHT22;71284;50.918;7.092;2023-07-29T02:08:54;22.20;68.70
81842;DHT22;71284;50.918;7.092;2023-07-29T02:11:20;22.20;68.40
81842;DHT22;71284;50.918;7.092;2023-07-29T02:13:47;22.30;68.50
81842;DHT22;71284;50.918;7.092;2023-07-29T02:16:14;22.30;69.00
81842;DHT22;71284;50.918;7.092;2023-07-29T02:18:40;22.10;70.00
81842;DHT22;71284;50.918;7.092;2023-07-29T02:21:07;21.60;71.70
81842;DHT22;71284;50.918;7.092;2023-07-29T02:23:33;21.60;71.50
81842;DHT22;71284;50.918;7.092;2023-07-29T02:26:00;21.80;71.00
81842;DHT22;71284;50.918;7.092;2023-07-29T02:28:26;21.80;70.40
81842;DHT22;71284;50.918;7.092;2023-07-29T02:31:13;21.90;70.20
81842;DHT22;71284;50.918;7.092;2023-07-29T02:33:36;22.10;69.80
81842;DHT22;71284;50.918;7.092;2023-07-29T02:36:03;22.10;69.60
81842;DHT22;71284;50.918;7.092;2023-07-29T02:38:30;22.10;69.40
81842;DHT22;71284;50.918;7.092;2023-07-29T02:40:56;22.20;69.10
81842;DHT22;71284;50.918;7.092;2023-07-29T02:43:23;22.10;69.70
81842;DHT22;71284;50.918;7.092;2023-07-29T02:45:49;22.00;69.40
81842;DHT22;71284;50.918;7.092;2023-07-29T02:48:16;22.10;69.90
81842;DHT22;71284;50.918;7.092;2023-07-29T02:50:42;22.10;69.10
81842;DHT22;71284;50.918;7.092;2023-07-29T02:53:09;22.10;69.10
81842;DHT22;71284;50.918;7.092;2023-07-29T02:55:39;22.10;69.10
81842;DHT22;71284;50.918;7.092;2023-07-29T02:58:02;22.10;68.90
81842;DHT22;71284;50.918;7.092;2023-07-29T03:00:31;22.20;68.80
81842;DHT22;71284;50.918;7.092;2023-07-29T03:02:55;22.20;68.90
81842;DHT22;71284;50.918;7.092;2023-07-29T03:05:22;22.20;68.80
81842;DHT22;71284;50.918;7.092;2023-07-29T03:07:49;22.20;68.90
81842;DHT22;71284;50.918;7.092;2023-07-29T03:10:15;22.20;68.90
81842;DHT22;71284;50.918;7.092;2023-07-29T03:12:42;22.20;69.00
81842;DHT22;71284;50.918;7.092;2023-07-29T03:15:08;22.20;68.80
81842;DHT22;71284;50.918;7.092;2023-07-29T03:17:35;22.20;68.80
81842;DHT22;71284;50.918;7.092;2023-07-29T03:20:02;22.20;68.70
81842;DHT22;71284;50.918;7.092;2023-07-29T03:22:28;22.20;68.70
81842;DHT22;71284;50.918;7.092;2023-07-29T03:24:55;22.20;68.70
81842;DHT22;71284;50.918;7.092;2023-07-29T03:27:21;22.20;68.90
81842;DHT22;71284;50.918;7.092;2023-07-29T03:29:48;22.20;68.90
81842;DHT22;71284;50.918;7.092;2023-07-29T03:32:15;22.20;68.80
81842;DHT22;71284;50.918;7.092;2023-07-29T03:34:41;22.20;68.80
81842;DHT22;71284;50.918;7.092;2023-07-29T03:37:08;22.20;69.60
81842;DHT22;71284;50.918;7.092;2023-07-29T03:39:34;22.20;68.90
81842;DHT22;71284;50.918;7.092;2023-07-29T03:42:01;22.20;68.90
81842;DHT22;71284;50.918;7.092;2023-07-29T03:44:27;22.20;68.90
81842;DHT22;71284;50.918;7.092;2023-07-29T03:46:54;22.20;69.10
81842;DHT22;71284;50.918;7.092;2023-07-29T03:49:21;22.20;69.00
81842;DHT22;71284;50.918;7.092;2023-07-29T03:51:47;22.30;68.90
81842;DHT22;71284;50.918;7.092;2023-07-29T03:54:14;22.10;69.40
81842;DHT22;71284;50.918;7.092;2023-07-29T03:56:40;22.20;69.20
81842;DHT22;71284;50.918;7.092;2023-07-29T03:59:07;22.20;68.90
81842;DHT22;71284;50.918;7.092;2023-07-29T04:01:34;22.20;68.80
81842;DHT22;71284;50.918;7.092;2023-07-29T04:04:00;22.20;68.90
81842;DHT22;71284;50.918;7.092;2023-07-29T04:06:27;22.20;69.20
81842;DHT22;71284;50.918;7.092;2023-07-29T04:08:53;22.10;68.90
81842;DHT22;71284;50.918;7.092;2023-07-29T04:11:20;22.00;69.80
81842;DHT22;71284;50.918;7.092;2023-07-29T04:13:47;22.00;69.00
81842;DHT22;71284;50.918;7.092;2023-07-29T04:16:13;22.10;69.10
81842;DHT22;71284;50.918;7.092;2023-07-29T04:18:40;22.10;69.10
81842;DHT22;71284;50.918;7.092;2023-07-29T04:21:06;22.10;69.10
81842;DHT22;71284;50.918;7.092;2023-07-29T04:23:33;22.20;68.90
81842;DHT22;71284;50.918;7.092;2023-07-29T04:26:00;22.00;69.30
81842;DHT22;71284;50.918;7.092;2023-07-29T04:28:26;22.00;69.20
81842;DHT22;71284;50.918;7.092;2023-07-29T04:30:53;22.10;69.10
81842;DHT22;71284;50.918;7.092;2023-07-29T04:33:19;22.10;69.30
81842;DHT22;71284;50.918;7.092;2023-07-29T04:35:46;22.10;69.00
81842;DHT22;71284;50.918;7.092;2023-07-29T04:38:13;22.10;68.90
81842;DHT22;71284;50.918;7.092;2023-07-29T04:40:39;22.20;68.70
81842;DHT22;71284;50.918;7.092;2023-07-29T04:43:06;22.20;68.60
81842;DHT22;71284;50.918;7.092;2023-07-29T04:45:32;22.20;68.60
81842;DHT22;71284;50.918;7.092;2023-07-29T04:47:59;22.20;68.60
81842;DHT22;71284;50.918;7.092;2023-07-29T04:50:25;22.20;68.60
81842;DHT22;71284;50.918;7.092;2023-07-29T04:52:52;22.20;68.60
81842;DHT22;71284;50.918;7.092;2023-07-29T04:55:19;22.10;68.70
81842;DHT22;71284;50.918;7.092;2023-07-29T04:57:45;22.10;68.20
81842;DHT22;71284;50.918;7.092;2023-07-29T05:00:12;22.10;68.60
81842;DHT22;71284;50.918;7.092;2023-07-29T05:02:38;22.20;68.60
81842;DHT22;71284;50.918;7.092;2023-07-29T05:05:06;22.20;68.60
81842;DHT22;71284;50.918;7.092;2023-07-29T05:07:33;22.10;69.60
81842;DHT22;71284;50.918;7.092;2023-07-29T05:09:59;22.10;68.70
81842;DHT22;71284;50.918;7.092;2023-07-29T05:12:26;22.20;68.90
81842;DHT22;71284;50.918;7.092;2023-07-29T05:14:52;22.10;69.10
81842;DHT22;71284;50.918;7.092;2023-07-29T05:17:19;22.10;69.00
81842;DHT22;71284;50.918;7.092;2023-07-29T05:19:46;22.10;69.00
81842;DHT22;71284;50.918;7.092;2023-07-29T05:22:12;22.10;68.90
81842;DHT22;71284;50.918;7.092;2023-07-29T05:24:39;22.20;68.80
81842;DHT22;71284;50.918;7.092;2023-07-29T05:27:05;22.10;68.90
81842;DHT22;71284;50.918;7.092;2023-07-29T05:29:32;22.20;68.90
81842;DHT22;71284;50.918;7.092;2023-07-29T05:31:58;22.10;69.00
81842;DHT22;71284;50.918;7.092;2023-07-29T05:34:25;22.10;69.20
81842;DHT22;71284;50.918;7.092;2023-07-29T05:36:52;22.20;69.00
81842;DHT22;71284;50.918;7.092;2023-07-29T05:39:18;22.20;69.60
81842;DHT22;71284;50.918;7.092;2023-07-29T05:41:45;22.20;68.60
81842;DHT22;71284;50.918;7.092;2023-07-29T05:44:11;22.30;68.60
81842;DHT22;71284;50.918;7.092;2023-07-29T05:46:38;22.30;68.90
81842;DHT22;71284;50.918;7.092;2023-07-29T05:49:05;22.30;68.50
81842;DHT22;71284;50.918;7.092;2023-07-29T05:51:31;22.40;68.70
81842;DHT22;71284;50.918;7.092;2023-07-29T05:53:58;22.20;68.90
81842;DHT22;71284;50.918;7.092;2023-07-29T05:56:24;22.20;68.90
81842;DHT22;71284;50.918;7.092;2023-07-29T05:58:51;22.20;69.20
81842;DHT22;71284;50.918;7.092;2023-07-29T06:01:18;22.30;69.00
81842;DHT22;71284;50.918;7.092;2023-07-29T06:03:44;22.30;68.70
81842;DHT22;71284;50.918;7.092;2023-07-29T06:06:11;22.30;68.50
81842;DHT22;71284;50.918;7.092;2023-07-29T06:08:37;22.30;68.70
81842;DHT22;71284;50.918;7.092;2023-07-29T06:11:04;22.40;68.50
81842;DHT22;71284;50.918;7.092;2023-07-29T06:13:30;22.50;68.10
81842;DHT22;71284;50.918;7.092;2023-07-29T06:15:57;22.40;68.00
81842;DHT22;71284;50.918;7.092;2023-07-29T06:18:24;22.50;68.00
81842;DHT22;71284;50.918;7.092;2023-07-29T06:20:50;22.40;67.70
81842;DHT22;71284;50.918;7.092;2023-07-29T06:23:17;22.30;67.90
81842;DHT22;71284;50.918;7.092;2023-07-29T06:25:43;22.40;67.10
81842;DHT22;71284;50.918;7.092;2023-07-29T06:28:10;22.20;67.00
81842;DHT22;71284;50.918;7.092;2023-07-29T06:30:37;22.20;67.20
81842;DHT22;71284;50.918;7.092;2023-07-29T06:33:03;22.20;67.00
81842;DHT22;71284;50.918;7.092;2023-07-29T06:35:30;22.40;67.10
81842;DHT22;71284;50.918;7.092;2023-07-29T06:37:56;22.40;67.10
81842;DHT22;71284;50.918;7.092;2023-07-29T06:40:23;22.30;67.00
81842;DHT22;71284;50.918;7.092;2023-07-29T06:42:50;22.40;67.10
81842;DHT22;71284;50.918;7.092;2023-07-29T06:45:16;22.20;66.70
81842;DHT22;71284;50.918;7.092;2023-07-29T06:47:43;22.20;65.90
81842;DHT22;71284;50.918;7.092;2023-07-29T06:50:09;21.70;68.20
81842;DHT22;71284;50.918;7.092;2023-07-29T06:52:36;21.80;69.00
81842;DHT22;71284;50.918;7.092;2023-07-29T06:55:03;21.80;68.50
81842;DHT22;71284;50.918;7.092;2023-07-29T06:57:30;21.70;67.40
81842;DHT22;71284;50.918;7.092;2023-07-29T06:59:56;21.80;68.20
81842;DHT22;71284;50.918;7.092;2023-07-29T07:02:23;21.90;67.60
81842;DHT22;71284;50.918;7.092;2023-07-29T07:04:49;22.00;67.00
81842;DHT22;71284;50.918;7.092;2023-07-29T07:07:16;22.00;67.60
81842;DHT22;71284;50.918;7.092;2023-07-29T07:09:42;22.10;67.80
81842;DHT22;71284;50.918;7.092;2023-07-29T07:12:09;22.10;67.80
81842;DHT22;71284;50.918;7.092;2023-07-29T07:14:36;22.20;66.90
81842;DHT22;71284;50.918;7.092;2023-07-29T07:17:02;22.40;66.90
81842;DHT22;71284;50.918;7.092;2023-07-29T07:19:29;22.40;66.30
81842;DHT22;71284;50.918;7.092;2023-07-29T07:21:55;22.40;65.60
81842;DHT22;71284;50.918;7.092;2023-07-29T07:24:22;22.40;66.90
81842;DHT22;71284;50.918;7.092;2023-07-29T07:26:49;22.40;66.50
81842;DHT22;71284;50.918;7.092;2023-07-29T07:29:15;22.50;66.10
81842;DHT22;71284;50.918;7.092;2023-07-29T07:31:42;22.40;66.60
81842;DHT22;71284;50.918;7.092;2023-07-29T07:34:08;22.40;65.90
81842;DHT22;71284;50.918;7.092;2023-07-29T07:36:35;22.30;66.60
81842;DHT22;71284;50.918;7.092;2023-07-29T07:39:02;22.40;66.10
81842;DHT22;71284;50.918;7.092;2023-07-29T07:41:28;22.40;66.00
81842;DHT22;71284;50.918;7.092;2023-07-29T07:43:55;22.40;65.70
81842;DHT22;71284;50.918;7.092;2023-07-29T07:46:21;22.40;65.70
81842;DHT22;71284;50.918;7.092;2023-07-29T07:48:48;22.50;65.90
81842;DHT22;71284;50.918;7.092;2023-07-29T07:51:15;22.60;66.00
81842;DHT22;71284;50.918;7.092;2023-07-29T07:53:41;22.50;64.80
81842;DHT22;71284;50.918;7.092;2023-07-29T07:56:08;22.60;65.10
81842;DHT22;71284;50.918;7.092;2023-07-29T07:58:34;22.60;62.80
81842;DHT22;71284;50.918;7.092;2023-07-29T08:01:05;22.30;64.20
81842;DHT22;71284;50.918;7.092;2023-07-29T08:03:31;22.00;66.20
81842;DHT22;71284;50.918;7.092;2023-07-29T08:05:58;22.20;65.70
81842;DHT22;71284;50.918;7.092;2023-07-29T08:08:25;22.40;64.10
81842;DHT22;71284;50.918;7.092;2023-07-29T08:10:52;22.60;64.30
81842;DHT22;71284;50.918;7.092;2023-07-29T08:13:17;22.70;62.90
81842;DHT22;71284;50.918;7.092;2023-07-29T08:15:47;22.70;63.30
81842;DHT22;71284;50.918;7.092;2023-07-29T08:18:13;22.80;63.60
81842;DHT22;71284;50.918;7.092;2023-07-29T08:20:40;22.80;64.10
81842;DHT22;71284;50.918;7.092;2023-07-29T08:23:06;22.80;62.20
81842;DHT22;71284;50.918;7.092;2023-07-29T08:25:33;23.00;63.20
81842;DHT22;71284;50.918;7.092;2023-07-29T08:28:00;23.10;63.70
81842;DHT22;71284;50.918;7.092;2023-07-29T08:30:26;23.20;63.50
81842;DHT22;71284;50.918;7.092;2023-07-29T08:32:53;23.20;62.20
81842;DHT22;71284;50.918;7.092;2023-07-29T08:35:19;23.40;63.20
81842;DHT22;71284;50.918;7.092;2023-07-29T08:37:46;23.50;62.90
81842;DHT22;71284;50.918;7.092;2023-07-29T08:40:13;23.40;61.00
81842;DHT22;71284;50.918;7.092;2023-07-29T08:42:40;23.30;60.00
81842;DHT22;71284;50.918;7.092;2023-07-29T08:45:07;23.30;61.70
81842;DHT22;71284;50.918;7.092;2023-07-29T08:47:34;23.40;60.80
81842;DHT22;71284;50.918;7.092;2023-07-29T08:50:01;22.90;59.00
81842;DHT22;71284;50.918;7.092;2023-07-29T08:52:27;22.70;60.40
81842;DHT22;71284;50.918;7.092;2023-07-29T08:54:53;22.90;61.50
81842;DHT22;71284;50.918;7.092;2023-07-29T08:57:21;23.00;60.20
81842;DHT22;71284;50.918;7.092;2023-07-29T08:59:47;23.00;61.30
81842;DHT22;71284;50.918;7.092;2023-07-29T09:02:14;22.90;60.70
81842;DHT22;71284;50.918;7.092;2023-07-29T09:04:41;22.80;59.50
81842;DHT22;71284;50.918;7.092;2023-07-29T09:07:07;22.90;60.00
81842;DHT22;71284;50.918;7.092;2023-07-29T09:09:34;22.70;61.30
81842;DHT22;71284;50.918;7.092;2023-07-29T09:12:00;22.70;59.10
81842;DHT22;71284;50.918;7.092;2023-07-29T09:14:27;22.70;60.00
81842;DHT22;71284;50.918;7.092;2023-07-29T09:16:54;22.70;60.10
81842;DHT22;71284;50.918;7.092;2023-07-29T09:19:20;22.40;57.60
81842;DHT22;71284;50.918;7.092;2023-07-29T09:21:47;22.50;61.10
81842;DHT22;71284;50.918;7.092;2023-07-29T09:24:15;22.70;61.20
81842;DHT22;71284;50.918;7.092;2023-07-29T09:26:40;22.80;59.50
81842;DHT22;71284;50.918;7.092;2023-07-29T09:29:06;22.80;60.30
81842;DHT22;71284;50.918;7.092;2023-07-29T09:31:33;22.70;59.20
81842;DHT22;71284;50.918;7.092;2023-07-29T09:34:01;22.70;56.90
81842;DHT22;71284;50.918;7.092;2023-07-29T09:36:26;22.50;58.10
81842;DHT22;71284;50.918;7.092;2023-07-29T09:38:53;22.60;57.90
81842;DHT22;71284;50.918;7.092;2023-07-29T09:41:21;22.60;57.90
81842;DHT22;71284;50.918;7.092;2023-07-29T09:43:46;22.60;58.20
81842;DHT22;71284;50.918;7.092;2023-07-29T09:46:13;22.80;59.20
81842;DHT22;71284;50.918;7.092;2023-07-29T09:48:39;22.70;57.60
81842;DHT22;71284;50.918;7.092;2023-07-29T09:51:14;22.70;59.30
81842;DHT22;71284;50.918;7.092;2023-07-29T09:53:44;22.80;60.10
81842;DHT22;71284;50.918;7.092;2023-07-29T09:56:09;22.80;61.20
81842;DHT22;71284;50.918;7.092;2023-07-29T09:58:36;22.80;59.20
81842;DHT22;71284;50.918;7.092;2023-07-29T10:01:02;22.80;59.50
81842;DHT22;71284;50.918;7.092;2023-07-29T10:03:29;22.90;59.30
81842;DHT22;71284;50.918;7.092;2023-07-29T10:05:55;23.10;59.70
81842;DHT22;71284;50.918;7.092;2023-07-29T10:08:22;23.20;57.90
81842;DHT22;71284;50.918;7.092;2023-07-29T10:10:49;23.20;58.00
81842;DHT22;71284;50.918;7.092;2023-07-29T10:13:15;23.20;56.50
81842;DHT22;71284;50.918;7.092;2023-07-29T10:15:42;23.20;57.50
81842;DHT22;71284;50.918;7.092;2023-07-29T10:18:08;23.20;55.40
81842;DHT22;71284;50.918;7.092;2023-07-29T10:20:35;23.30;55.20
81842;DHT22;71284;50.918;7.092;2023-07-29T10:23:01;23.30;54.40
81842;DHT22;71284;50.918;7.092;2023-07-29T10:25:32;23.20;54.80
81842;DHT22;71284;50.918;7.092;2023-07-29T10:27:57;23.40;54.80
81842;DHT22;71284;50.918;7.092;2023-07-29T10:30:23;23.50;56.10
81842;DHT22;71284;50.918;7.092;2023-07-29T10:32:49;23.60;52.70
81842;DHT22;71284;50.918;7.092;2023-07-29T10:35:16;23.60;55.10
81842;DHT22;71284;50.918;7.092;2023-07-29T10:37:42;23.70;56.10
81842;DHT22;71284;50.918;7.092;2023-07-29T10:40:09;23.70;54.20
81842;DHT22;71284;50.918;7.092;2023-07-29T10:42:36;23.70;54.40
81842;DHT22;71284;50.918;7.092;2023-07-29T10:45:18;23.60;54.10
81842;DHT22;71284;50.918;7.092;2023-07-29T10:47:45;23.50;54.90
81842;DHT22;71284;50.918;7.092;2023-07-29T10:50:19;23.30;55.40
81842;DHT22;71284;50.918;7.092;2023-07-29T10:52:48;23.30;56.50
81842;DHT22;71284;50.918;7.092;2023-07-29T10:55:23;23.30;57.20
81842;DHT22;71284;50.918;7.092;2023-07-29T10:57:48;23.20;56.70
81842;DHT22;71284;50.918;7.092;2023-07-29T11:00:15;23.10;57.30
81842;DHT22;71284;50.918;7.092;2023-07-29T11:02:42;22.90;57.60
81842;DHT22;71284;50.918;7.092;2023-07-29T11:05:23;23.00;58.30
81842;DHT22;71284;50.918;7.092;2023-07-29T11:07:50;23.00;58.30
81842;DHT22;71284;50.918;7.092;2023-07-29T11:10:16;23.00;58.70
81842;DHT22;71284;50.918;7.092;2023-07-29T11:12:45;23.20;58.90
81842;DHT22;71284;50.918;7.092;2023-07-29T11:15:27;23.30;58.90
81842;DHT22;71284;50.918;7.092;2023-07-29T11:17:56;23.40;58.80
81842;DHT22;71284;50.918;7.092;2023-07-29T11:20:23;23.40;59.00
81842;DHT22;71284;50.918;7.092;2023-07-29T11:22:49;23.40;59.60
81842;DHT22;71284;50.918;7.092;2023-07-29T11:25:16;23.40;59.80
81842;DHT22;71284;50.918;7.092;2023-07-29T11:27:42;23.30;60.50
81842;DHT22;71284;50.918;7.092;2023-07-29T11:30:10;23.30;61.10
81842;DHT22;71284;50.918;7.092;2023-07-29T11:32:37;23.40;61.40
81842;DHT22;71284;50.918;7.092;2023-07-29T11:35:05;23.50;62.50
81842;DHT22;71284;50.918;7.092;2023-07-29T11:37:32;23.60;62.20
81842;DHT22;71284;50.918;7.092;2023-07-29T11:39:57;23.70;62.80
81842;DHT22;71284;50.918;7.092;2023-07-29T11:42:24;23.40;60.70
81842;DHT22;71284;50.918;7.092;2023-07-29T11:44:50;23.30;62.00
81842;DHT22;71284;50.918;7.092;2023-07-29T11:47:17;23.40;61.90
81842;DHT22;71284;50.918;7.092;2023-07-29T11:49:43;23.40;60.80
81842;DHT22;71284;50.918;7.092;2023-07-29T11:52:10;23.30;61.30
81842;DHT22;71284;50.918;7.092;2023-07-29T11:54:37;23.50;60.90
81842;DHT22;71284;50.918;7.092;2023-07-29T11:57:06;23.60;61.10
81842;DHT22;71284;50.918;7.092;2023-07-29T11:59:33;23.90;60.30
81842;DHT22;71284;50.918;7.092;2023-07-29T12:02:00;24.20;60.00
81842;DHT22;71284;50.918;7.092;2023-07-29T12:04:25;24.40;59.10
81842;DHT22;71284;50.918;7.092;2023-07-29T12:06:52;24.70;58.60
81842;DHT22;71284;50.918;7.092;2023-07-29T12:09:18;24.70;57.90
81842;DHT22;71284;50.918;7.092;2023-07-29T12:11:45;24.90;59.20
81842;DHT22;71284;50.918;7.092;2023-07-29T12:14:12;24.80;56.70
81842;DHT22;71284;50.918;7.092;2023-07-29T12:16:42;25.00;56.40
81842;DHT22;71284;50.918;7.092;2023-07-29T12:19:11;24.90;55.20
81842;DHT22;71284;50.918;7.092;2023-07-29T12:21:35;25.10;55.20
81842;DHT22;71284;50.918;7.092;2023-07-29T12:24:02;25.30;53.70
81842;DHT22;71284;50.918;7.092;2023-07-29T12:26:29;25.40;54.80
81842;DHT22;71284;50.918;7.092;2023-07-29T12:28:56;25.70;53.40
81842;DHT22;71284;50.918;7.092;2023-07-29T12:31:30;25.90;54.10
81842;DHT22;71284;50.918;7.092;2023-07-29T12:33:49;26.00;53.30
81842;DHT22;71284;50.918;7.092;2023-07-29T12:36:16;26.50;53.50
81842;DHT22;71284;50.918;7.092;2023-07-29T12:38:42;27.20;51.40
81842;DHT22;71284;50.918;7.092;2023-07-29T12:41:09;28.10;49.60
81842;DHT22;71284;50.918;7.092;2023-07-29T12:43:35;29.00;46.40
81842;DHT22;71284;50.918;7.092;2023-07-29T12:46:02;29.80;42.80
81842;DHT22;71284;50.918;7.092;2023-07-29T12:48:28;30.40;43.90
81842;DHT22;71284;50.918;7.092;2023-07-29T12:50:55;30.60;43.10
81842;DHT22;71284;50.918;7.092;2023-07-29T12:53:22;30.90;42.20
81842;DHT22;71284;50.918;7.092;2023-07-29T12:55:49;30.60;44.20
81842;DHT22;71284;50.918;7.092;2023-07-29T12:58:16;30.30;42.80
81842;DHT22;71284;50.918;7.092;2023-07-29T13:00:42;29.60;43.70
81842;DHT22;71284;50.918;7.092;2023-07-29T13:03:09;29.10;46.50
81842;DHT22;71284;50.918;7.092;2023-07-29T13:05:35;28.40;48.30
81842;DHT22;71284;50.918;7.092;2023-07-29T13:08:02;27.90;49.00
81842;DHT22;71284;50.918;7.092;2023-07-29T13:10:29;27.60;50.10
81842;DHT22;71284;50.918;7.092;2023-07-29T13:12:55;27.20;49.30
81842;DHT22;71284;50.918;7.092;2023-07-29T13:15:22;26.90;50.80
81842;DHT22;71284;50.918;7.092;2023-07-29T13:17:48;26.70;51.40
81842;DHT22;71284;50.918;7.092;2023-07-29T13:20:15;26.50;52.10
81842;DHT22;71284;50.918;7.092;2023-07-29T13:22:42;26.30;50.50
81842;DHT22;71284;50.918;7.092;2023-07-29T13:25:08;26.20;51.60
81842;DHT22;71284;50.918;7.092;2023-07-29T13:27:35;26.10;51.60
81842;DHT22;71284;50.918;7.092;2023-07-29T13:30:01;25.90;52.00
81842;DHT22;71284;50.918;7.092;2023-07-29T13:32:28;25.80;52.00
81842;DHT22;71284;50.918;7.092;2023-07-29T13:34:54;25.70;52.90
81842;DHT22;71284;50.918;7.092;2023-07-29T13:37:21;25.60;52.80
81842;DHT22;71284;50.918;7.092;2023-07-29T13:39:48;25.50;53.60
81842;DHT22;71284;50.918;7.092;2023-07-29T13:42:14;25.40;54.00
81842;DHT22;71284;50.918;7.092;2023-07-29T13:44:41;25.30;55.70
81842;DHT22;71284;50.918;7.092;2023-07-29T13:47:07;25.10;55.90
81842;DHT22;71284;50.918;7.092;2023-07-29T13:49:34;25.00;56.20
81842;DHT22;71284;50.918;7.092;2023-07-29T13:52:01;24.90;56.90
81842;DHT22;71284;50.918;7.092;2023-07-29T13:54:27;24.70;58.80
81842;DHT22;71284;50.918;7.092;2023-07-29T13:56:54;24.50;61.40
81842;DHT22;71284;50.918;7.092;2023-07-29T13:59:20;24.30;62.00
81842;DHT22;71284;50.918;7.092;2023-07-29T14:01:47;24.00;63.70
81842;DHT22;71284;50.918;7.092;2023-07-29T14:04:14;23.80;64.50
81842;DHT22;71284;50.918;7.092;2023-07-29T14:06:40;23.80;64.60
81842;DHT22;71284;50.918;7.092;2023-07-29T14:09:07;23.70;64.40
81842;DHT22;71284;50.918;7.092;2023-07-29T14:11:33;23.70;64.20
81842;DHT22;71284;50.918;7.092;2023-07-29T14:14:00;23.80;64.80
81842;DHT22;71284;50.918;7.092;2023-07-29T14:16:27;23.90;64.60
81842;DHT22;71284;50.918;7.092;2023-07-29T14:18:53;24.00;64.50
81842;DHT22;71284;50.918;7.092;2023-07-29T14:21:20;24.00;63.60
81842;DHT22;71284;50.918;7.092;2023-07-29T14:23:46;24.00;63.80
81842;DHT22;71284;50.918;7.092;2023-07-29T14:26:13;24.10;63.70
81842;DHT22;71284;50.918;7.092;2023-07-29T14:28:39;24.30;63.30
81842;DHT22;71284;50.918;7.092;2023-07-29T14:31:06;24.20;62.60
81842;DHT22;71284;50.918;7.092;2023-07-29T14:33:33;24.30;64.00
81842;DHT22;71284;50.918;7.092;2023-07-29T14:35:59;24.30;64.10
81842;DHT22;71284;50.918;7.092;2023-07-29T14:38:26;24.50;63.60
81842;DHT22;71284;50.918;7.092;2023-07-29T14:40:52;24.70;63.60
81842;DHT22;71284;50.918;7.092;2023-07-29T14:43:19;25.00;62.90
81842;DHT22;71284;50.918;7.092;2023-07-29T14:45:46;25.20;62.20
81842;DHT22;71284;50.918;7.092;2023-07-29T14:48:12;25.40;60.80
81842;DHT22;71284;50.918;7.092;2023-07-29T14:50:39;25.50;60.70
81842;DHT22;71284;50.918;7.092;2023-07-29T14:53:05;25.60;59.80
81842;DHT22;71284;50.918;7.092;2023-07-29T14:55:32;25.40;58.60
81842;DHT22;71284;50.918;7.092;2023-07-29T14:57:59;25.30;60.30
81842;DHT22;71284;50.918;7.092;2023-07-29T15:00:25;25.10;60.70
81842;DHT22;71284;50.918;7.092;2023-07-29T15:02:52;24.90;58.70
81842;DHT22;71284;50.918;7.092;2023-07-29T15:05:18;24.80;58.40
81842;DHT22;71284;50.918;7.092;2023-07-29T15:07:46;24.70;58.50
81842;DHT22;71284;50.918;7.092;2023-07-29T15:10:14;24.50;59.70
81842;DHT22;71284;50.918;7.092;2023-07-29T15:12:38;24.50;60.50
81842;DHT22;71284;50.918;7.092;2023-07-29T15:15:06;24.50;61.00
81842;DHT22;71284;50.918;7.092;2023-07-29T15:17:32;24.60;62.10
81842;DHT22;71284;50.918;7.092;2023-07-29T15:19:59;24.60;62.10
81842;DHT22;71284;50.918;7.092;2023-07-29T15:22:26;24.70;62.30
81842;DHT22;71284;50.918;7.092;2023-07-29T15:24:52;24.70;60.00
81842;DHT22;71284;50.918;7.092;2023-07-29T15:27:19;24.60;60.50
81842;DHT22;71284;50.918;7.092;2023-07-29T15:29:45;24.50;61.80